createdAt,value
2018-10-19T00:01:49.881Z,2.33
2018-10-19T00:04:18.729Z,1.87
2018-10-19T00:06:47.127Z,2.10
2018-10-19T00:09:15.895Z,2.07
2018-10-19T00:11:44.301Z,2.20
2018-10-19T00:14:13.027Z,2.63
2018-10-19T00:16:41.492Z,2.50
2018-10-19T00:19:10.370Z,2.30
2018-10-19T00:21:38.787Z,1.77
2018-10-19T00:24:07.332Z,2.50
2018-10-19T00:26:36.645Z,2.40
2018-10-19T00:29:05.719Z,2.20
2018-10-19T00:31:34.102Z,2.23
2018-10-19T00:34:02.529Z,2.30
2018-10-19T00:36:31.655Z,2.20
2018-10-19T00:39:01.189Z,2.20
2018-10-19T00:41:29.615Z,2.27
2018-10-19T00:43:58.059Z,1.93
2018-10-19T00:46:26.530Z,1.90
2018-10-19T00:48:55.014Z,2.00
2018-10-19T00:51:23.411Z,2.23
2018-10-19T00:53:52.177Z,1.93
2018-10-19T00:56:20.683Z,1.80
2018-10-19T00:58:49.525Z,1.80
2018-10-19T01:01:17.953Z,2.33
2018-10-19T01:03:46.730Z,2.30
2018-10-19T01:06:15.269Z,2.43
2018-10-19T01:08:43.775Z,2.00
2018-10-19T01:11:12.415Z,1.83
2018-10-19T01:13:40.793Z,1.97
2018-10-19T01:16:09.454Z,2.00
2018-10-19T01:18:38.178Z,2.33
2018-10-19T01:21:07.015Z,1.80
2018-10-19T01:23:35.672Z,1.90
2018-10-19T01:26:04.092Z,2.10
2018-10-19T01:28:32.878Z,2.37
2018-10-19T01:31:01.764Z,2.10
2018-10-19T01:33:30.162Z,2.03
2018-10-19T01:35:58.570Z,2.00
2018-10-19T01:38:27.614Z,2.90
2018-10-19T01:40:56.065Z,2.67
2018-10-19T01:43:24.454Z,1.80
2018-10-19T01:45:56.289Z,1.90
2018-10-19T01:48:25.253Z,2.00
2018-10-19T01:50:53.669Z,2.10
2018-10-19T01:53:22.106Z,1.80
2018-10-19T01:55:50.646Z,1.97
2018-10-19T01:58:19.106Z,1.90
2018-10-19T02:00:47.582Z,2.17
2018-10-19T02:03:15.974Z,2.30
2018-10-19T02:05:44.432Z,1.83
2018-10-19T02:08:12.784Z,2.37
2018-10-19T02:10:41.191Z,2.50
2018-10-19T02:13:10.477Z,2.17
2018-10-19T02:15:40.202Z,2.40
2018-10-19T02:18:08.763Z,2.20
2018-10-19T02:20:38.501Z,2.23
2018-10-19T02:23:07.095Z,2.23
2018-10-19T02:25:35.465Z,2.23
2018-10-19T02:28:04.599Z,1.93
2018-10-19T02:30:33.866Z,2.23
2018-10-19T02:33:02.524Z,2.43
2018-10-19T02:35:30.836Z,2.00
2018-10-19T02:37:59.969Z,1.77
2018-10-19T02:40:28.384Z,2.00
2018-10-19T02:42:56.817Z,1.70
2018-10-19T02:45:25.252Z,2.40
2018-10-19T02:47:53.957Z,1.83
2018-10-19T02:50:22.374Z,2.03
2018-10-19T02:52:50.825Z,2.40
2018-10-19T02:55:19.248Z,2.43
2018-10-19T02:57:47.683Z,2.50
2018-10-19T03:00:16.072Z,2.93
2018-10-19T03:02:44.474Z,2.03
2018-10-19T03:05:12.959Z,2.37
2018-10-19T03:07:41.395Z,2.40
2018-10-19T03:10:10.338Z,2.10
2018-10-19T03:12:39.287Z,2.87
2018-10-19T03:15:08.678Z,2.50
2018-10-19T03:17:37.047Z,2.60
2018-10-19T03:20:07.018Z,2.83
2018-10-19T03:22:35.696Z,1.93
2018-10-19T03:25:05.128Z,2.40
2018-10-19T03:27:34.120Z,2.87
2018-10-19T03:30:02.506Z,2.30
2018-10-19T03:32:30.889Z,2.30
2018-10-19T03:34:59.903Z,2.77
2018-10-19T03:37:28.283Z,3.33
2018-10-19T03:39:56.833Z,2.63
2018-10-19T03:42:25.310Z,2.20
2018-10-19T03:44:53.906Z,2.37
2018-10-19T03:47:22.317Z,2.40
2018-10-19T03:49:50.748Z,2.80
2018-10-19T03:52:19.129Z,2.17
2018-10-19T03:54:47.576Z,3.77
2018-10-19T03:57:16.002Z,2.23
2018-10-19T04:00:00.083Z,2.80
2018-10-19T04:02:28.582Z,2.40
2018-10-19T04:04:57.619Z,2.53
2018-10-19T04:07:26.532Z,2.73
2018-10-19T04:09:55.252Z,2.70
2018-10-19T04:12:23.670Z,2.57
2018-10-19T04:14:52.049Z,2.33
2018-10-19T04:17:20.977Z,2.37
2018-10-19T04:19:49.418Z,2.50
2018-10-19T04:22:18.508Z,3.17
2018-10-19T04:24:47.447Z,3.00
2018-10-19T04:27:15.924Z,3.67
2018-10-19T04:29:44.294Z,2.43
2018-10-19T04:32:13.981Z,3.13
2018-10-19T04:34:42.395Z,3.20
2018-10-19T04:37:10.852Z,2.10
2018-10-19T04:39:39.273Z,2.27
2018-10-19T04:42:07.992Z,2.97
2018-10-19T04:44:36.273Z,2.37
2018-10-19T04:47:04.979Z,2.40
2018-10-19T04:49:33.646Z,2.97
2018-10-19T04:52:02.207Z,3.17
2018-10-19T04:54:31.223Z,2.70
2018-10-19T04:57:00.110Z,2.57
2018-10-19T04:59:28.602Z,2.67
2018-10-19T05:01:57.014Z,2.43
2018-10-19T05:04:25.441Z,2.63
2018-10-19T05:06:53.934Z,3.03
2018-10-19T05:09:22.394Z,3.00
2018-10-19T05:11:50.991Z,2.90
2018-10-19T05:14:19.622Z,3.20
2018-10-19T05:16:47.917Z,2.80
2018-10-19T05:19:16.423Z,3.27
2018-10-19T05:21:44.904Z,3.10
2018-10-19T05:24:13.358Z,2.87
2018-10-19T05:26:41.743Z,2.80
2018-10-19T05:29:10.795Z,3.20
2018-10-19T05:31:39.254Z,3.20
2018-10-19T05:34:07.923Z,2.87
2018-10-19T05:36:36.352Z,2.90
2018-10-19T05:39:07.563Z,3.23
2018-10-19T05:41:36.051Z,3.13
2018-10-19T05:44:04.749Z,3.60
2018-10-19T05:46:33.156Z,4.27
2018-10-19T05:49:01.556Z,2.90
2018-10-19T05:51:29.995Z,3.07
2018-10-19T05:53:58.387Z,3.37
2018-10-19T05:56:26.853Z,3.33
2018-10-19T05:58:55.337Z,3.20
2018-10-19T06:01:23.778Z,3.13
2018-10-19T06:03:52.138Z,3.30
2018-10-19T06:06:20.553Z,3.23
2018-10-19T06:08:48.949Z,3.70
2018-10-19T06:11:17.432Z,3.30
2018-10-19T06:13:46.010Z,3.43
2018-10-19T06:16:14.346Z,3.33
2018-10-19T06:18:42.720Z,3.43
2018-10-19T06:21:11.148Z,3.30
2018-10-19T06:23:39.550Z,3.70
2018-10-19T06:26:08.176Z,3.90
2018-10-19T06:28:36.465Z,3.20
2018-10-19T06:31:05.150Z,3.33
2018-10-19T06:33:33.535Z,3.13
2018-10-19T06:36:02.347Z,3.93
2018-10-19T06:38:30.726Z,3.40
2018-10-19T06:40:59.058Z,3.30
2018-10-19T06:43:27.411Z,3.07
2018-10-19T06:45:55.838Z,3.63
2018-10-19T06:48:24.252Z,3.80
2018-10-19T06:50:52.602Z,3.10
2018-10-19T06:53:21.017Z,3.50
2018-10-19T06:55:49.471Z,3.90
2018-10-19T06:58:18.242Z,3.93
2018-10-19T07:00:46.700Z,3.23
2018-10-19T07:03:15.226Z,3.33
2018-10-19T07:05:43.613Z,3.67
2018-10-19T07:08:12.842Z,3.20
2018-10-19T07:10:41.252Z,3.53
2018-10-19T07:13:09.770Z,3.23
2018-10-19T07:15:38.214Z,3.27
2018-10-19T07:18:06.623Z,3.87
2018-10-19T07:20:35.038Z,3.37
2018-10-19T07:23:04.238Z,3.87
2018-10-19T07:25:32.652Z,3.70
2018-10-19T07:28:01.035Z,3.87
2018-10-19T07:30:29.571Z,3.43
2018-10-19T07:32:58.165Z,3.97
2018-10-19T07:35:26.749Z,4.57
2018-10-19T07:37:55.244Z,4.10
2018-10-19T07:40:23.691Z,3.60
2018-10-19T07:42:52.091Z,4.03
2018-10-19T07:45:20.481Z,3.87
2018-10-19T07:47:49.046Z,3.37
2018-10-19T07:50:17.449Z,3.37
2018-10-19T07:52:46.024Z,3.60
2018-10-19T07:55:14.384Z,3.43
2018-10-19T07:57:42.875Z,3.43
2018-10-19T08:00:11.547Z,3.43
2018-10-19T08:02:39.972Z,3.60
2018-10-19T08:05:09.128Z,3.10
2018-10-19T08:07:37.539Z,3.53
2018-10-19T08:10:07.518Z,2.93
2018-10-19T08:12:36.069Z,3.23
2018-10-19T08:15:04.566Z,3.03
2018-10-19T08:17:33.074Z,3.50
2018-10-19T08:20:01.977Z,3.70
2018-10-19T08:22:30.503Z,3.37
2018-10-19T08:24:58.919Z,3.57
2018-10-19T08:27:27.362Z,2.90
2018-10-19T08:29:55.795Z,3.00
2018-10-19T08:32:24.157Z,2.63
2018-10-19T08:34:52.606Z,3.03
2018-10-19T08:37:21.029Z,2.90
2018-10-19T08:39:49.382Z,2.93
2018-10-19T08:42:18.008Z,2.73
2018-10-19T08:44:46.823Z,2.30
2018-10-19T08:47:15.472Z,2.30
2018-10-19T08:49:43.910Z,2.80
2018-10-19T08:52:12.375Z,2.37
2018-10-19T08:54:40.854Z,2.73
2018-10-19T08:57:09.354Z,2.27
2018-10-19T08:59:37.849Z,2.87
2018-10-19T09:02:06.267Z,2.00
2018-10-19T09:04:34.696Z,2.67
2018-10-19T09:07:03.180Z,2.57
2018-10-19T09:09:31.594Z,2.30
2018-10-19T09:12:00.037Z,2.60
2018-10-19T09:14:39.660Z,2.17
2018-10-19T09:17:08.225Z,2.20
2018-10-19T09:19:36.646Z,2.13
2018-10-19T09:22:05.439Z,2.70
2018-10-19T09:24:33.886Z,2.97
2018-10-19T09:27:02.348Z,3.17
2018-10-19T09:29:30.813Z,2.60
2018-10-19T09:31:59.211Z,2.20
2018-10-19T09:34:27.689Z,1.93
2018-10-19T09:36:56.228Z,2.10
2018-10-19T09:39:24.610Z,2.53
2018-10-19T09:41:53.240Z,2.73
2018-10-19T09:44:21.664Z,2.37
2018-10-19T09:46:50.170Z,2.10
2018-10-19T09:49:18.661Z,2.97
2018-10-19T09:51:47.350Z,2.70
2018-10-19T09:54:15.726Z,2.37
2018-10-19T09:56:44.195Z,2.17
2018-10-19T09:59:12.726Z,2.37
2018-10-19T10:01:41.777Z,2.17
2018-10-19T10:04:10.204Z,2.20
2018-10-19T10:06:38.989Z,2.43
2018-10-19T10:09:12.299Z,2.47
2018-10-19T10:11:41.032Z,2.00
2018-10-19T10:14:10.366Z,2.40
2018-10-19T10:17:09.414Z,2.60
2018-10-19T10:19:37.971Z,2.27
2018-10-19T10:22:06.764Z,1.97
2018-10-19T10:24:35.600Z,1.97
2018-10-19T10:27:03.960Z,2.53
2018-10-19T10:29:32.411Z,2.27
2018-10-19T10:32:01.487Z,2.37
2018-10-19T10:34:29.946Z,2.07
2018-10-19T10:36:58.398Z,2.07
2018-10-19T10:39:26.799Z,1.90
2018-10-19T10:41:55.205Z,1.73
2018-10-19T10:44:23.571Z,2.07
2018-10-19T10:46:52.165Z,1.80
2018-10-19T10:49:20.537Z,1.70
2018-10-19T10:51:48.887Z,1.50
2018-10-19T10:54:17.306Z,1.60
2018-10-19T10:56:45.651Z,1.60
2018-10-19T10:59:14.023Z,1.70
2018-10-19T11:01:42.406Z,2.00
2018-10-19T11:04:11.060Z,1.67
2018-10-19T11:06:39.446Z,1.83
2018-10-19T11:09:10.897Z,1.73
2018-10-19T11:11:39.318Z,2.57
2018-10-19T11:14:07.737Z,1.90
2018-10-19T11:16:36.160Z,2.03
2018-10-19T11:19:04.819Z,2.10
2018-10-19T11:21:34.071Z,2.27
2018-10-19T11:24:03.157Z,2.00
2018-10-19T11:26:31.624Z,1.57
2018-10-19T11:28:59.955Z,1.63
2018-10-19T11:31:28.477Z,1.50
2018-10-19T11:33:56.941Z,2.27
2018-10-19T11:36:25.369Z,2.03
2018-10-19T11:38:54.542Z,1.33
2018-10-19T11:41:23.127Z,2.13
2018-10-19T11:43:51.620Z,1.83
2018-10-19T11:46:21.022Z,2.10
2018-10-19T11:48:50.459Z,1.70
2018-10-19T11:51:19.553Z,1.70
2018-10-19T11:53:48.628Z,1.90
2018-10-19T11:56:17.635Z,2.13
2018-10-19T11:58:46.820Z,1.70
2018-10-19T12:01:16.049Z,2.23
2018-10-19T12:03:46.234Z,2.23
2018-10-19T12:06:15.039Z,1.90
2018-10-19T12:08:46.518Z,2.10
2018-10-19T12:11:15.614Z,2.10
2018-10-19T12:13:45.117Z,1.67
2018-10-19T12:16:15.863Z,2.23
2018-10-19T12:18:45.598Z,1.60
2018-10-19T12:21:14.793Z,2.03
2018-10-19T12:23:44.020Z,2.10
2018-10-19T12:26:13.737Z,1.40
2018-10-19T12:28:42.832Z,1.53
2018-10-19T12:31:12.488Z,1.70
2018-10-19T12:33:41.196Z,1.90
2018-10-19T12:36:09.839Z,2.17
2018-10-19T12:38:38.422Z,1.53
2018-10-19T12:41:07.125Z,1.50
2018-10-19T12:43:35.727Z,1.80
2018-10-19T12:46:28.275Z,1.67
2018-10-19T12:48:57.307Z,1.77
2018-10-19T12:51:25.930Z,1.77
2018-10-19T12:53:54.693Z,1.73
2018-10-19T12:56:23.631Z,1.60
2018-10-19T12:58:53.419Z,1.50
2018-10-19T13:01:23.232Z,1.67
2018-10-19T13:03:51.893Z,1.60
2018-10-19T13:06:20.392Z,1.57
2018-10-19T13:08:49.081Z,1.40
2018-10-19T13:11:17.673Z,1.83
2018-10-19T13:13:46.262Z,1.60
2018-10-19T13:16:15.093Z,1.60
2018-10-19T13:18:43.836Z,1.70
2018-10-19T13:21:12.568Z,1.77
2018-10-19T13:23:41.175Z,1.17
2018-10-19T13:26:10.229Z,1.80
2018-10-19T13:28:38.975Z,1.83
2018-10-19T13:31:07.663Z,1.67
2018-10-19T13:33:36.639Z,1.70
2018-10-19T13:36:05.694Z,1.80
2018-10-19T13:38:34.102Z,1.60
2018-10-19T13:41:02.639Z,1.83
2018-10-19T13:43:31.201Z,1.57
2018-10-19T13:45:59.980Z,1.60
2018-10-19T13:48:28.584Z,1.67
2018-10-19T13:50:57.313Z,1.97
2018-10-19T13:53:26.039Z,1.63
2018-10-19T13:55:54.709Z,1.87
2018-10-19T13:58:23.583Z,1.90
2018-10-19T14:00:52.470Z,1.80
2018-10-19T14:03:21.218Z,1.60
2018-10-19T14:05:49.800Z,1.63
2018-10-19T14:08:19.063Z,1.70
2018-10-19T14:10:48.362Z,1.63
2018-10-19T14:13:17.673Z,1.17
2018-10-19T14:15:46.479Z,1.70
2018-10-19T14:18:15.307Z,1.87
2018-10-19T14:20:44.569Z,1.50
2018-10-19T14:23:13.507Z,1.50
2018-10-19T14:25:42.562Z,1.90
2018-10-19T14:28:11.438Z,1.67
2018-10-19T14:30:40.643Z,1.67
2018-10-19T14:33:09.636Z,1.90
2018-10-19T14:35:38.687Z,2.10
2018-10-19T14:38:07.551Z,1.60
2018-10-19T14:40:36.540Z,1.77
2018-10-19T14:43:05.326Z,2.13
2018-10-19T14:45:34.376Z,1.60
2018-10-19T14:48:03.497Z,1.60
2018-10-19T14:50:32.539Z,1.70
2018-10-19T14:53:01.924Z,1.77
2018-10-19T14:55:30.964Z,1.77
2018-10-19T14:58:01.132Z,1.60
2018-10-19T15:00:30.750Z,1.43
2018-10-19T15:02:59.875Z,1.50
2018-10-19T15:05:29.297Z,2.10
2018-10-19T15:07:58.660Z,2.20
2018-10-19T15:10:28.253Z,1.20
2018-10-19T15:12:57.073Z,1.90
2018-10-19T15:15:25.748Z,1.33
2018-10-19T15:17:54.911Z,1.50
2018-10-19T15:20:23.912Z,1.50
2018-10-19T15:22:54.962Z,1.37
2018-10-19T15:25:24.445Z,1.73
2018-10-19T15:27:53.039Z,1.60
2018-10-19T15:30:21.929Z,1.53
2018-10-19T15:32:50.522Z,1.60
2018-10-19T15:35:19.298Z,1.90
2018-10-19T15:37:47.987Z,1.73
2018-10-19T15:40:16.569Z,1.20
2018-10-19T15:42:45.868Z,1.90
2018-10-19T15:45:14.859Z,1.87
2018-10-19T15:47:43.519Z,2.03
2018-10-19T15:50:12.862Z,1.80
2018-10-19T15:52:41.632Z,1.90
2018-10-19T15:55:10.327Z,1.83
2018-10-19T15:57:38.943Z,2.60
2018-10-19T16:00:09.394Z,2.00
2018-10-19T16:02:38.224Z,1.93
2018-10-19T16:05:07.584Z,2.07
2018-10-19T16:07:36.619Z,2.47
2018-10-19T16:10:06.501Z,2.07
2018-10-19T16:12:35.227Z,2.07
2018-10-19T16:15:04.433Z,2.17
2018-10-19T16:17:33.169Z,2.00
2018-10-19T16:20:01.971Z,2.10
2018-10-19T16:22:31.589Z,2.23
2018-10-19T16:25:00.363Z,2.00
2018-10-19T16:27:29.515Z,2.60
2018-10-19T16:29:58.148Z,2.50
2018-10-19T16:32:26.729Z,2.43
2018-10-19T16:34:55.674Z,2.27
2018-10-19T16:37:24.427Z,2.50
2018-10-19T16:39:53.118Z,2.63
2018-10-19T16:42:21.709Z,2.40
2018-10-19T16:44:50.723Z,2.33
2018-10-19T16:47:20.652Z,2.73
2018-10-19T16:49:53.262Z,2.60
2018-10-19T16:52:22.219Z,2.40
2018-10-19T16:54:51.536Z,2.93
2018-10-19T16:57:20.919Z,2.70
2018-10-19T16:59:49.499Z,3.20
2018-10-19T17:02:18.021Z,2.83
2018-10-19T17:04:48.493Z,2.80
2018-10-19T17:07:17.056Z,2.97
2018-10-19T17:09:45.940Z,3.30
2018-10-19T17:12:15.096Z,3.30
2018-10-19T17:14:43.997Z,3.63
2018-10-19T17:17:12.846Z,3.50
2018-10-19T17:19:41.860Z,3.50
2018-10-19T17:22:10.454Z,4.27
2018-10-19T17:24:39.907Z,3.70
2018-10-19T17:27:09.053Z,4.07
2018-10-19T17:29:37.845Z,3.60
2018-10-19T17:32:06.625Z,3.80
2018-10-19T17:34:35.431Z,3.50
2018-10-19T17:37:04.607Z,3.80
2018-10-19T17:39:33.489Z,4.43
2018-10-19T17:42:02.067Z,5.00
2018-10-19T17:44:30.771Z,4.87
2018-10-19T17:46:59.583Z,4.70
2018-10-19T17:49:28.932Z,3.17
2018-10-19T17:51:57.764Z,3.57
2018-10-19T17:54:27.698Z,3.97
2018-10-19T17:56:56.247Z,3.70
2018-10-19T17:59:25.109Z,3.10
2018-10-19T18:01:53.696Z,3.80
2018-10-19T18:04:22.426Z,4.30
2018-10-19T18:06:51.351Z,4.23
2018-10-19T18:09:20.043Z,4.50
2018-10-19T18:11:48.702Z,4.07
2018-10-19T18:14:17.416Z,3.50
2018-10-19T18:16:46.275Z,3.80
2018-10-19T18:19:17.404Z,3.83
2018-10-19T18:21:47.034Z,3.73
2018-10-19T18:24:16.412Z,5.80
2018-10-19T18:26:45.319Z,3.97
2018-10-19T18:29:14.682Z,3.30
2018-10-19T18:31:44.912Z,4.13
2018-10-19T18:34:14.953Z,3.83
2018-10-19T18:36:44.521Z,4.37
2018-10-19T18:39:14.617Z,4.10
2018-10-19T18:41:44.513Z,4.50
2018-10-19T18:44:14.555Z,3.57
2018-10-19T18:46:44.529Z,3.60
2018-10-19T18:49:14.295Z,3.83
2018-10-19T18:51:43.421Z,4.20
2018-10-19T18:54:12.900Z,4.40
2018-10-19T18:56:42.237Z,4.67
2018-10-19T18:59:11.125Z,4.47
2018-10-19T19:01:42.006Z,4.90
2018-10-19T19:04:10.822Z,4.50
2018-10-19T19:06:40.585Z,4.60
2018-10-19T19:09:13.051Z,4.27
2018-10-19T19:11:41.829Z,3.93
2018-10-19T19:14:10.640Z,4.23
2018-10-19T19:16:39.709Z,4.13
2018-10-19T19:19:08.343Z,4.37
2018-10-19T19:21:37.460Z,4.07
2018-10-19T19:24:12.203Z,4.40
2018-10-19T19:26:41.697Z,4.80
2018-10-19T19:29:10.440Z,4.27
2018-10-19T19:31:41.729Z,4.20
2018-10-19T19:34:16.389Z,4.17
2018-10-19T19:36:46.049Z,4.03
2018-10-19T19:41:50.923Z,4.00
2018-10-19T19:44:21.629Z,4.07
2018-10-19T19:46:51.496Z,3.53
2018-10-19T19:49:27.232Z,3.37
2018-10-19T19:51:58.053Z,5.57
2018-10-19T19:54:28.462Z,4.97
2018-10-19T19:56:57.538Z,4.83
2018-10-19T19:59:26.369Z,4.20
2018-10-19T20:01:55.314Z,4.37
2018-10-19T20:04:24.596Z,4.77
2018-10-19T20:06:53.384Z,4.90
2018-10-19T20:09:23.139Z,4.23
2018-10-19T20:11:52.106Z,3.63
2018-10-19T20:14:21.664Z,4.80
2018-10-19T20:16:50.927Z,5.03
2018-10-19T20:19:19.597Z,4.20
2018-10-19T20:21:48.187Z,5.20
2018-10-19T20:24:16.878Z,4.60
2018-10-19T20:26:45.655Z,4.43
2018-10-19T20:29:17.482Z,4.00
2018-10-19T20:31:54.411Z,4.37
2018-10-19T20:34:24.399Z,4.60
2018-10-19T20:36:58.476Z,4.40
2018-10-19T20:39:28.162Z,4.23
2018-10-19T20:42:00.899Z,4.93
2018-10-19T20:44:29.523Z,4.13
2018-10-19T20:47:02.984Z,4.40
2018-10-19T20:49:32.079Z,4.37
2018-10-19T20:52:00.574Z,4.37
2018-10-19T20:54:29.182Z,4.47
2018-10-19T20:56:57.846Z,4.53
2018-10-19T20:59:26.441Z,4.70
2018-10-19T21:01:55.209Z,5.07
2018-10-19T21:04:24.911Z,4.73
2018-10-19T21:06:53.639Z,4.47
2018-10-19T21:09:22.344Z,4.40
2018-10-19T21:11:51.227Z,4.80
2018-10-19T21:14:20.512Z,4.50
2018-10-19T21:16:49.048Z,5.10
2018-10-19T21:19:17.755Z,5.73
2018-10-19T21:21:46.316Z,5.17
2018-10-19T21:24:15.033Z,5.10
2018-10-19T21:26:43.617Z,4.47
2018-10-19T21:29:13.088Z,4.50
2018-10-19T21:31:41.911Z,4.13
2018-10-19T21:34:10.595Z,5.80
2018-10-19T21:36:39.311Z,4.60
2018-10-19T21:39:10.937Z,4.73
2018-10-19T21:41:39.512Z,5.00
2018-10-19T21:44:08.245Z,4.43
2018-10-19T21:46:36.933Z,4.60
2018-10-19T21:49:05.779Z,4.20
2018-10-19T21:51:34.393Z,4.40
2018-10-19T21:54:02.861Z,4.93
2018-10-19T21:56:31.544Z,4.97
2018-10-19T21:59:17.671Z,5.23
2018-10-19T22:01:46.094Z,4.50
2018-10-19T22:04:14.621Z,4.53
2018-10-19T22:06:43.219Z,4.70
2018-10-19T22:09:13.638Z,5.30
2018-10-19T22:11:42.668Z,5.13
2018-10-19T22:14:11.488Z,5.80
2018-10-19T22:16:41.489Z,5.30
2018-10-19T22:19:11.149Z,5.07
2018-10-19T22:21:40.462Z,5.03
2018-10-19T22:24:10.108Z,4.80
2018-10-19T22:26:39.007Z,5.30
2018-10-19T22:29:08.408Z,4.93
2018-10-19T22:31:36.986Z,5.83
2018-10-19T22:34:06.859Z,5.27
2018-10-19T22:36:35.694Z,5.43
2018-10-19T22:39:04.795Z,5.20
2018-10-19T22:41:33.326Z,4.47
2018-10-19T22:44:01.799Z,4.73
2018-10-19T22:46:30.404Z,5.00
2018-10-19T22:48:58.935Z,5.70
2018-10-19T22:51:27.582Z,6.10
2018-10-19T22:53:56.825Z,5.70
2018-10-19T22:56:26.397Z,5.83
2018-10-19T22:58:56.344Z,5.27
2018-10-19T23:01:26.068Z,5.70
2018-10-19T23:03:54.796Z,6.17
2018-10-19T23:06:23.447Z,6.33
2018-10-19T23:08:53.181Z,6.13
2018-10-19T23:11:22.122Z,5.60
2018-10-19T23:13:50.969Z,5.23
2018-10-19T23:16:19.986Z,6.40
2018-10-19T23:18:49.168Z,5.97
2018-10-19T23:21:18.468Z,6.13
2018-10-19T23:23:47.293Z,5.77
2018-10-19T23:26:16.061Z,5.67
2018-10-19T23:28:44.613Z,5.47
2018-10-19T23:31:13.442Z,5.73
2018-10-19T23:33:42.093Z,5.83
2018-10-19T23:36:10.782Z,5.60
2018-10-19T23:38:39.530Z,5.63
2018-10-19T23:41:08.946Z,5.10
2018-10-19T23:43:37.875Z,5.53
2018-10-19T23:46:06.835Z,6.33
2018-10-19T23:48:35.682Z,5.60
2018-10-19T23:51:04.918Z,6.30
2018-10-19T23:53:33.872Z,5.80
2018-10-19T23:56:02.783Z,5.40
2018-10-19T23:58:31.258Z,6.33
